Time;durP1;ratioP1;P1;durP2;ratioP2;P2;SDS_P1;SDS_P2;PMS_P1;PMS_P2;Temp;Humidity;BMP_temperature;BMP_pressure;BME280_temperature;BME280_humidity;BME280_pressure;Samples;Min_cycle;Max_cycle;Signal;HPM_P1;HPM_P2
2022/07/10 00:00:26;;;;;;;9.82;1.60;;;;;;;15.22;66.03;102621.09;5069673;28;20085;-76
2022/07/10 00:02:55;;;;;;;6.60;1.50;;;;;;;15.21;66.38;102627.31;5068856;28;20033;-75
2022/07/10 00:05:25;;;;;;;6.13;1.33;;;;;;;15.17;66.23;102624.75;5059829;28;20512;-76
2022/07/10 00:07:52;;;;;;;4.95;1.35;;;;;;;15.17;66.24;102628.31;5073046;28;20132;-76
2022/07/10 00:10:21;;;;;;;4.13;1.25;;;;;;;15.16;66.34;102623.91;5072162;28;20053;-77
2022/07/10 00:12:51;;;;;;;6.35;1.48;;;;;;;15.15;66.52;102627.47;5072604;28;20084;-76
2022/07/10 00:15:19;;;;;;;5.93;1.40;;;;;;;15.14;66.72;102616.88;5067163;28;20099;-79
2022/07/10 00:17:46;;;;;;;7.13;1.58;;;;;;;15.14;66.81;102617.75;5072642;28;20087;-78
2022/07/10 00:20:14;;;;;;;8.50;1.90;;;;;;;15.12;66.90;102616.88;5071600;28;20072;-79
2022/07/10 00:22:42;;;;;;;4.07;1.30;;;;;;;15.10;66.93;102620.50;5073182;28;20049;-77
2022/07/10 00:25:13;;;;;;;4.75;1.30;;;;;;;15.09;66.73;102609.00;5070343;28;20037;-78
2022/07/10 00:27:41;;;;;;;9.55;1.30;;;;;;;15.10;66.80;102615.19;5065938;28;20465;-77
2022/07/10 00:30:10;;;;;;;4.38;1.27;;;;;;;15.13;67.01;102618.63;5071284;28;20084;-72
2022/07/10 00:32:37;;;;;;;5.88;1.50;;;;;;;15.14;66.83;102615.06;5072650;28;20090;-73
2022/07/10 00:35:06;;;;;;;5.00;1.30;;;;;;;15.22;66.90;102615.78;5072939;28;20049;-72
2022/07/10 00:37:37;;;;;;;5.22;1.25;;;;;;;15.24;66.71;102612.22;5073545;28;20044;-73
2022/07/10 00:40:06;;;;;;;4.20;1.00;;;;;;;15.25;66.78;102617.53;5071312;28;20118;-75
2022/07/10 00:42:33;;;;;;;5.65;1.25;;;;;;;15.27;66.72;102605.06;5072762;28;20091;-76
2022/07/10 00:45:00;;;;;;;5.70;1.05;;;;;;;15.30;66.75;102602.34;5071866;28;20048;-75
2022/07/10 00:47:27;;;;;;;7.85;1.52;;;;;;;15.32;66.50;102610.25;5064988;28;20130;-75
2022/07/10 00:49:55;;;;;;;6.50;1.70;;;;;;;15.30;66.35;102598.81;5072531;28;20053;-74
2022/07/10 00:52:23;;;;;;;5.38;1.42;;;;;;;15.27;66.47;102604.19;5071058;28;20100;-75
2022/07/10 00:54:51;;;;;;;5.22;1.20;;;;;;;15.25;66.47;102590.06;5071693;28;20601;-75
2022/07/10 00:57:19;;;;;;;4.47;1.35;;;;;;;15.22;66.65;102597.19;5063285;28;20455;-75
2022/07/10 00:59:53;;;;;;;8.35;1.75;;;;;;;15.19;66.78;102588.41;5062267;28;20548;-75
2022/07/10 01:02:21;;;;;;;;;;;;;;;15.13;66.70;102589.41;5071127;28;20053;-75
2022/07/10 01:04:48;;;;;;;4.88;1.70;;;;;;;15.12;66.79;102587.66;5062189;28;19924;-76
2022/07/10 01:07:15;;;;;;;3.92;1.50;;;;;;;15.10;66.91;102584.19;5071241;28;20120;-77
2022/07/10 01:09:44;;;;;;;10.00;1.60;;;;;;;15.10;66.95;102573.56;5071121;28;20057;-77
2022/07/10 01:12:12;;;;;;;6.75;1.80;;;;;;;15.07;67.01;102578.94;5070606;28;20530;-77
2022/07/10 01:14:41;;;;;;;6.05;1.70;;;;;;;15.01;66.74;102571.97;5065231;28;20079;-77
2022/07/10 01:17:08;;;;;;;6.35;1.73;;;;;;;14.99;67.37;102568.47;5070875;28;20041;-76
2022/07/10 01:19:36;;;;;;;8.80;2.00;;;;;;;14.96;67.24;102570.31;5066194;28;20044;-75
2022/07/10 01:22:04;;;;;;;9.13;2.00;;;;;;;14.94;67.47;102566.81;5070856;28;20675;-75
2022/07/10 01:24:31;;;;;;;4.90;1.70;;;;;;;14.92;68.01;102572.19;5072007;28;20077;-77
2022/07/10 01:26:58;;;;;;;3.75;1.60;;;;;;;14.87;68.21;102568.72;5064457;28;20076;-72
2022/07/10 01:29:26;;;;;;;8.60;2.03;;;;;;;14.77;68.29;102572.47;5067776;28;20060;-73
2022/07/10 01:31:53;;;;;;;5.50;1.85;;;;;;;14.72;68.72;102561.97;5061691;28;20037;-74
2022/07/10 01:34:24;;;;;;;5.20;1.90;;;;;;;14.67;68.98;102562.06;5071162;28;20045;-76
2022/07/10 01:36:51;;;;;;;3.63;1.50;;;;;;;14.64;68.91;102569.16;5067389;28;20045;-76
2022/07/10 01:39:18;;;;;;;6.72;1.50;;;;;;;14.62;69.40;102566.56;5069047;28;20103;-74
2022/07/10 01:41:45;;;;;;;7.72;1.90;;;;;;;14.57;69.54;102565.75;5066093;28;20078;-77
2022/07/10 01:44:13;;;;;;;7.43;1.92;;;;;;;14.54;69.49;102566.69;5072122;28;20132;-75
2022/07/10 01:46:48;;;;;;;5.30;2.00;;;;;;;14.53;69.85;102562.28;5069740;28;20473;-74
2022/07/10 01:49:15;;;;;;;7.93;2.13;;;;;;;14.51;69.34;102560.59;5066885;28;20068;-75
2022/07/10 01:51:43;;;;;;;7.47;1.88;;;;;;;14.50;69.60;102549.06;5069648;28;20044;-74
2022/07/10 01:54:10;;;;;;;5.90;1.83;;;;;;;14.49;69.39;102563.28;5066046;28;20041;-75
2022/07/10 01:56:38;;;;;;;4.53;1.80;;;;;;;14.48;69.75;102553.56;5071763;28;20464;-75
2022/07/10 01:59:06;;;;;;;5.00;2.05;;;;;;;14.48;69.74;102555.31;5065754;28;20040;-75
2022/07/10 02:01:33;;;;;;;7.32;1.73;;;;;;;14.44;69.80;102557.16;5062323;28;20070;-75
2022/07/10 02:06:47;;;;;;;5.13;1.75;;;;;;;14.35;70.52;102550.25;5069986;28;20048;-75
2022/07/10 02:09:14;;;;;;;7.03;2.15;;;;;;;14.35;71.05;102552.91;5070867;28;20589;-76
2022/07/10 02:11:41;;;;;;;6.43;1.98;;;;;;;14.33;70.96;102553.84;5052738;28;20037;-75
2022/07/10 02:14:09;;;;;;;4.80;1.50;;;;;;;14.32;70.95;102549.44;5071113;28;20045;-75
2022/07/10 02:16:36;;;;;;;5.50;1.52;;;;;;;14.29;71.07;102548.59;5070214;28;20088;-76
2022/07/10 02:19:04;;;;;;;7.70;1.92;;;;;;;14.24;71.15;102546.94;5071686;28;20033;-76
2022/07/10 02:21:31;;;;;;;4.47;1.85;;;;;;;14.18;70.99;102539.97;5069438;28;20119;-76
2022/07/10 02:23:58;;;;;;;8.18;1.70;;;;;;;14.12;71.10;102533.00;5069959;28;20091;-75
2022/07/10 02:26:25;;;;;;;8.40;2.00;;;;;;;14.09;71.48;102542.81;5070322;28;20081;-74
2022/07/10 02:28:53;;;;;;;7.32;1.85;;;;;;;14.05;71.80;102544.59;5071652;28;20158;-77
2022/07/10 02:31:21;;;;;;;5.65;1.67;;;;;;;13.99;71.73;102539.44;5062399;28;20041;-75
2022/07/10 02:33:48;;;;;;;6.00;1.80;;;;;;;13.94;72.03;102535.97;5070433;28;20159;-75
2022/07/10 02:36:15;;;;;;;6.32;1.77;;;;;;;13.87;72.09;102540.53;5070889;28;20045;-76
2022/07/10 02:38:42;;;;;;;5.90;1.45;;;;;;;13.84;72.46;102542.34;5070893;28;20504;-76
2022/07/10 02:41:09;;;;;;;7.07;2.08;;;;;;;13.83;72.43;102549.41;5070927;28;20037;-76
2022/07/10 02:43:37;;;;;;;8.18;2.00;;;;;;;13.86;72.64;102554.69;5071307;28;20045;-76
2022/07/10 02:46:06;;;;;;;5.10;1.45;;;;;;;13.88;72.45;102558.19;5071489;28;20156;-75
2022/07/10 02:48:33;;;;;;;5.53;2.20;;;;;;;13.89;72.44;102549.31;5071990;28;20508;-76
2022/07/10 02:51:00;;;;;;;9.40;1.90;;;;;;;13.93;72.45;102547.50;5071737;28;20473;-77
2022/07/10 02:53:27;;;;;;;6.78;2.17;;;;;;;13.95;72.37;102545.66;5069262;28;20064;-76
2022/07/10 02:55:55;;;;;;;4.68;1.73;;;;;;;13.98;72.61;102548.28;5071647;28;20124;-75
2022/07/10 02:58:23;;;;;;;10.60;1.60;;;;;;;14.00;72.63;102550.91;5069498;28;20165;-75
2022/07/10 03:00:52;;;;;;;8.95;1.80;;;;;;;13.98;72.72;102535.91;5070240;28;20075;-76
2022/07/10 03:03:21;;;;;;;5.22;1.83;;;;;;;14.03;72.47;102542.91;5067814;28;20071;-75
2022/07/10 03:05:48;;;;;;;5.03;1.88;;;;;;;14.02;72.42;102528.78;5070910;28;20056;-73
2022/07/10 03:08:16;;;;;;;5.05;1.50;;;;;;;14.03;72.43;102527.88;5058188;28;20049;-72
2022/07/10 03:10:43;;;;;;;6.28;1.80;;;;;;;14.05;72.09;102530.50;5070466;28;20088;-73
2022/07/10 03:13:10;;;;;;;9.43;2.10;;;;;;;14.04;72.00;102536.69;5070199;28;20045;-73
2022/07/10 03:15:37;;;;;;;8.30;1.90;;;;;;;14.01;72.30;102534.09;5069667;28;20037;-74
2022/07/10 03:18:04;;;;;;;5.80;1.98;;;;;;;14.01;72.21;102531.44;5069348;28;20134;-73
2022/07/10 03:20:31;;;;;;;5.57;1.60;;;;;;;13.96;72.18;102531.53;5069924;28;20540;-73
2022/07/10 03:22:59;;;;;;;8.32;1.73;;;;;;;13.91;72.00;102531.59;5068159;28;20037;-73
2022/07/10 03:25:26;;;;;;;6.95;2.00;;;;;;;13.91;72.16;102530.75;5068798;28;20080;-73
2022/07/10 03:27:53;;;;;;;5.50;2.00;;;;;;;13.90;72.32;102529.84;5065712;28;20538;-74
2022/07/10 03:30:20;;;;;;;7.40;1.90;;;;;;;13.94;72.48;102531.56;5070303;28;20127;-74
2022/07/10 03:32:47;;;;;;;6.35;2.08;;;;;;;13.96;72.26;102523.56;5062416;28;20044;-74
2022/07/10 03:35:15;;;;;;;8.70;1.98;;;;;;;13.99;72.16;102523.53;5069773;28;20041;-74
2022/07/10 03:37:43;;;;;;;8.20;2.30;;;;;;;14.01;71.98;102515.53;5067430;28;20060;-74
2022/07/10 03:40:11;;;;;;;9.90;1.55;;;;;;;14.02;71.78;102520.81;5070970;28;20471;-73
2022/07/10 03:42:38;;;;;;;6.25;1.90;;;;;;;14.05;71.81;102530.50;5070412;28;20124;-73
2022/07/10 03:45:06;;;;;;;6.95;1.75;;;;;;;14.05;71.92;102518.09;5074160;28;20116;-75
2022/07/10 03:47:33;;;;;;;7.60;1.70;;;;;;;14.08;71.76;102525.13;5071863;28;20037;-74
2022/07/10 03:50:00;;;;;;;6.13;1.65;;;;;;;14.09;71.78;102525.09;5067713;28;20037;-76
2022/07/10 03:52:27;;;;;;;7.20;1.70;;;;;;;14.12;71.87;102525.06;5070756;28;20554;-76
2022/07/10 03:54:54;;;;;;;5.50;1.50;;;;;;;14.19;71.86;102533.78;5070444;28;20044;-76
2022/07/10 04:00:08;;;;;;;8.05;2.15;;;;;;;14.25;71.40;102517.72;5072569;28;20048;-77
2022/07/10 04:02:39;;;;;;;5.93;1.58;;;;;;;14.27;71.62;102523.88;5070639;28;20045;-76
2022/07/10 04:05:10;;;;;;;9.88;1.98;;;;;;;14.27;71.46;102529.19;5071386;28;20049;-76
2022/07/10 04:07:37;;;;;;;8.43;1.90;;;;;;;14.28;71.60;102523.00;5064319;28;20041;-76
2022/07/10 04:10:06;;;;;;;8.77;1.65;;;;;;;14.29;71.45;102522.06;5071567;28;20132;-76
2022/07/10 04:12:33;;;;;;;6.25;2.03;;;;;;;14.29;71.36;102519.41;5073019;28;20048;-76
2022/07/10 04:15:00;;;;;;;4.57;1.50;;;;;;;14.30;71.41;102520.31;5063254;28;20044;-74
2022/07/10 04:17:27;;;;;;;5.10;1.60;;;;;;;14.26;71.55;102519.50;5066122;28;20068;-75
2022/07/10 04:19:54;;;;;;;7.65;2.03;;;;;;;14.26;71.32;102521.25;5070891;28;20068;-73
2022/07/10 04:22:21;;;;;;;4.57;1.92;;;;;;;14.25;71.40;102514.19;5072678;28;20127;-72
2022/07/10 04:24:50;;;;;;;6.38;1.80;;;;;;;14.27;71.46;102517.69;5072677;28;20038;-73
2022/07/10 04:27:17;;;;;;;6.50;2.10;;;;;;;14.28;71.38;102512.38;5072907;28;20098;-75
2022/07/10 04:29:45;;;;;;;5.53;1.85;;;;;;;14.29;71.46;102518.53;5065099;28;20069;-75
2022/07/10 04:32:12;;;;;;;6.80;2.25;;;;;;;14.28;71.51;102520.34;5073139;28;20045;-75
2022/07/10 04:34:39;;;;;;;8.02;2.03;;;;;;;14.28;71.55;102517.69;5070461;28;20037;-73
2022/07/10 04:37:07;;;;;;;7.20;1.83;;;;;;;14.27;71.47;102517.69;5071094;28;20041;-73
2022/07/10 04:39:37;;;;;;;8.20;1.73;;;;;;;14.27;71.76;102518.59;5072956;28;20033;-73
2022/07/10 04:42:06;;;;;;;6.50;2.03;;;;;;;14.30;71.92;102528.25;5070690;28;20069;-73
2022/07/10 04:44:36;;;;;;;7.93;2.20;;;;;;;14.33;71.91;102530.88;5071064;28;20095;-74
2022/07/10 04:47:05;;;;;;;7.95;2.30;;;;;;;14.40;71.56;102535.13;5067672;28;20037;-72
2022/07/10 04:49:33;;;;;;;7.63;2.20;;;;;;;14.46;71.44;102536.78;5072222;28;20053;-73
2022/07/10 04:52:01;;;;;;;8.65;2.22;;;;;;;14.55;71.30;102533.09;5067738;28;20048;-73
2022/07/10 04:54:28;;;;;;;9.18;2.58;;;;;;;14.58;71.32;102525.94;5073235;28;20051;-74
2022/07/10 04:56:55;;;;;;;5.78;2.30;;;;;;;14.59;71.10;102521.50;5071004;28;20456;-73
2022/07/10 04:59:24;;;;;;;9.27;2.72;;;;;;;14.61;71.40;102525.00;5061170;28;20049;-73
2022/07/10 05:01:51;;;;;;;8.73;2.70;;;;;;;14.68;71.50;102521.34;5070178;28;20041;-74
2022/07/10 05:04:18;;;;;;;6.13;2.50;;;;;;;14.69;71.17;102520.44;5072886;28;20037;-76
2022/07/10 05:06:46;;;;;;;6.03;2.42;;;;;;;14.71;71.40;102518.63;5051641;28;20037;-77
2022/07/10 05:09:13;;;;;;;10.68;2.47;;;;;;;14.76;71.20;102521.19;5063485;28;20065;-74
2022/07/10 05:11:40;;;;;;;6.68;2.50;;;;;;;14.79;71.50;102525.53;5062695;28;20070;-79
2022/07/10 05:14:10;;;;;;;6.53;2.47;;;;;;;14.82;71.14;102518.38;5064005;28;20061;-76
2022/07/10 05:16:37;;;;;;;8.80;2.15;;;;;;;14.88;71.16;102531.53;5070930;28;20052;-76
2022/07/10 05:19:04;;;;;;;6.55;1.65;;;;;;;14.90;71.05;102528.84;5066261;28;20045;-75
2022/07/10 05:21:31;;;;;;;7.85;2.15;;;;;;;14.93;71.19;102527.91;5069179;28;20045;-76
2022/07/10 05:23:58;;;;;;;5.82;2.38;;;;;;;14.95;70.99;102523.44;5070690;28;20044;-75
2022/07/10 05:26:26;;;;;;;7.88;2.00;;;;;;;14.97;70.93;102521.63;5067834;28;20125;-78
2022/07/10 05:28:53;;;;;;;8.95;2.15;;;;;;;14.97;71.01;102529.59;5067361;28;20141;-78
2022/07/10 05:31:20;;;;;;;8.10;2.10;;;;;;;14.98;70.87;102529.53;5064911;28;20079;-78
2022/07/10 05:33:47;;;;;;;6.72;1.98;;;;;;;14.97;70.92;102526.94;5050384;28;20068;-75
2022/07/10 05:36:15;;;;;;;8.02;2.00;;;;;;;14.96;70.69;102533.16;5071273;28;20099;-77
2022/07/10 05:38:42;;;;;;;6.95;2.17;;;;;;;14.95;70.87;102537.59;5070928;28;20484;-74
2022/07/10 05:41:09;;;;;;;5.43;2.33;;;;;;;14.94;70.95;102532.31;5070242;28;20042;-77
2022/07/10 05:43:36;;;;;;;4.88;2.10;;;;;;;14.98;70.99;102537.50;5072765;28;20522;-77
2022/07/10 05:46:03;;;;;;;7.93;1.98;;;;;;;14.97;71.01;102535.75;5070622;28;20044;-77
2022/07/10 05:48:56;;;;;;;7.22;1.98;;;;;;;15.02;71.01;102528.59;5069563;28;20041;-77
2022/07/10 05:51:23;;;;;;;7.68;2.20;;;;;;;15.11;71.11;102530.13;5071460;28;20965;-77
2022/07/10 05:54:05;;;;;;;5.95;1.70;;;;;;;15.22;70.66;102532.56;5061958;28;20041;-78
2022/07/10 05:56:32;;;;;;;6.22;2.03;;;;;;;15.28;70.49;102537.72;5063817;28;20505;-78
2022/07/10 05:58:59;;;;;;;9.48;1.75;;;;;;;15.33;70.08;102527.88;5062046;28;20504;-77
2022/07/10 06:01:27;;;;;;;9.10;2.28;;;;;;;15.38;69.97;102522.47;5045259;28;20041;-74
2022/07/10 06:03:54;;;;;;;6.70;2.35;;;;;;;15.47;70.11;102526.66;5058751;28;20041;-75
2022/07/10 06:06:21;;;;;;;7.05;1.83;;;;;;;15.62;69.68;102533.38;5064825;28;20049;-77
2022/07/10 06:08:48;;;;;;;6.65;2.03;;;;;;;15.66;69.62;102540.38;5063887;28;20053;-77
2022/07/10 06:11:16;;;;;;;7.50;2.30;;;;;;;15.72;69.15;102540.22;5063151;28;20041;-76
2022/07/10 06:13:43;;;;;;;8.18;2.00;;;;;;;15.73;68.94;102539.31;5066239;28;20041;-76
2022/07/10 06:16:10;;;;;;;5.57;1.88;;;;;;;15.75;69.16;102534.84;5058048;28;20049;-78
2022/07/10 06:18:38;;;;;;;6.68;2.10;;;;;;;15.86;69.03;102539.94;5048975;28;20068;-77
2022/07/10 06:21:05;;;;;;;6.45;2.00;;;;;;;15.95;68.40;102536.13;5069426;28;20045;-78
2022/07/10 06:23:33;;;;;;;4.88;1.73;;;;;;;16.00;68.39;102536.91;5063922;28;20107;-76
2022/07/10 06:26:00;;;;;;;8.05;1.98;;;;;;;16.05;68.32;102537.66;5052792;28;20628;-78
2022/07/10 06:28:27;;;;;;;9.25;1.95;;;;;;;16.10;68.48;102540.19;5060280;28;20044;-76
2022/07/10 06:30:54;;;;;;;5.95;1.83;;;;;;;16.15;68.51;102540.94;5060104;28;20047;-76
2022/07/10 06:33:27;;;;;;;6.50;1.80;;;;;;;16.19;68.17;102539.94;5064694;28;20504;-76
2022/07/10 06:35:54;;;;;;;7.55;1.58;;;;;;;16.21;67.94;102538.09;5059961;28;20045;-77
2022/07/10 06:38:21;;;;;;;8.18;1.75;;;;;;;16.30;67.31;102535.19;5063781;28;20148;-75
2022/07/10 06:40:49;;;;;;;4.80;1.30;;;;;;;16.33;67.12;102536.88;5066402;28;20072;-75
2022/07/10 06:43:17;;;;;;;6.60;1.27;;;;;;;16.36;66.89;102538.63;5060145;28;20057;-76
2022/07/10 06:45:45;;;;;;;9.50;1.45;;;;;;;16.40;65.99;102545.59;5066411;28;20853;-77
2022/07/10 06:48:13;;;;;;;7.07;1.42;;;;;;;16.34;66.00;102540.44;5055527;28;20513;-78
2022/07/10 06:50:41;;;;;;;5.85;1.67;;;;;;;16.32;66.02;102542.25;5065307;28;20052;-76
2022/07/10 06:53:15;;;;;;;7.60;1.25;;;;;;;16.32;66.45;102544.94;5061854;28;20045;-76
2022/07/10 06:55:42;;;;;;;8.05;1.55;;;;;;;16.33;66.78;102538.69;5064468;28;20080;-78
2022/07/10 06:58:09;;;;;;;8.82;1.60;;;;;;;16.30;66.95;102539.66;5065726;28;20453;-77
2022/07/10 07:00:37;;;;;;;10.52;1.23;;;;;;;16.30;67.36;102543.19;5067636;28;20823;-76
2022/07/10 07:03:04;;;;;;;7.95;1.60;;;;;;;16.30;67.45;102535.19;5065457;28;20096;-77
2022/07/10 07:05:32;;;;;;;8.60;1.48;;;;;;;16.32;67.61;102536.94;5069310;28;20122;-76
2022/07/10 07:08:00;;;;;;;5.22;1.35;;;;;;;16.29;67.72;102533.44;5067167;28;20045;-77
2022/07/10 07:10:27;;;;;;;7.90;1.67;;;;;;;16.32;67.97;102528.97;5068742;28;20185;-77
2022/07/10 07:12:54;;;;;;;8.18;1.45;;;;;;;16.39;67.96;102544.72;5064586;28;20079;-77
2022/07/10 07:15:23;;;;;;;7.15;1.38;;;;;;;16.41;67.31;102542.91;5067169;28;20098;-75
2022/07/10 07:17:57;;;;;;;10.98;1.63;;;;;;;16.36;67.47;102535.97;5068646;28;20515;-74
2022/07/10 07:23:11;;;;;;;6.85;1.17;;;;;;;16.37;67.89;102543.88;5063915;28;20044;-74
2022/07/10 07:25:46;;;;;;;7.32;1.50;;;;;;;16.41;67.33;102544.66;5068771;28;20554;-75
2022/07/10 07:28:15;;;;;;;6.43;1.38;;;;;;;16.42;67.50;102551.75;5068565;28;20119;-74
2022/07/10 07:30:43;;;;;;;6.97;1.42;;;;;;;16.40;67.44;102556.22;5067815;28;20164;-74
2022/07/10 07:33:12;;;;;;;8.75;1.70;;;;;;;16.37;67.48;102551.88;5061557;28;20479;-74
2022/07/10 07:35:42;;;;;;;6.75;1.42;;;;;;;16.40;68.03;102553.56;5057625;28;20135;-75
2022/07/10 07:38:10;;;;;;;5.90;1.50;;;;;;;16.47;67.83;102560.50;5068019;28;20037;-75
2022/07/10 07:40:38;;;;;;;7.20;1.30;;;;;;;16.55;67.88;102549.59;5070290;28;20108;-75
2022/07/10 07:43:05;;;;;;;9.50;1.73;;;;;;;16.59;68.12;102549.47;5068313;28;20056;-74
2022/07/10 07:45:33;;;;;;;7.95;1.45;;;;;;;16.64;68.24;102553.81;5060929;28;20099;-74
2022/07/10 07:48:04;;;;;;;10.45;1.80;;;;;;;16.66;68.31;102555.50;5060732;28;20041;-77
2022/07/10 07:50:35;;;;;;;7.63;1.70;;;;;;;16.62;68.64;102556.53;5058284;28;20512;-74
2022/07/10 07:53:05;;;;;;;8.30;1.60;;;;;;;16.57;68.46;102556.66;5060352;28;20559;-77
2022/07/10 07:55:33;;;;;;;7.63;1.55;;;;;;;16.60;68.32;102556.53;5061642;28;20795;-76
2022/07/10 07:58:03;;;;;;;6.55;1.50;;;;;;;16.58;68.55;102555.72;5058002;28;20037;-73
2022/07/10 08:00:31;;;;;;;6.53;1.45;;;;;;;16.59;68.56;102559.25;5055106;28;20106;-74
2022/07/10 08:03:00;;;;;;;5.18;1.40;;;;;;;16.57;68.37;102558.44;5061845;28;20128;-73
2022/07/10 08:05:28;;;;;;;9.90;1.70;;;;;;;16.56;68.78;102557.56;5065669;28;20563;-75
2022/07/10 08:08:04;;;;;;;12.25;1.42;;;;;;;16.55;68.95;102555.81;5065009;28;20046;-76
2022/07/10 08:10:32;;;;;;;5.40;1.65;;;;;;;16.59;69.15;102545.94;5063594;28;20084;-75
2022/07/10 08:12:59;;;;;;;8.02;1.60;;;;;;;16.66;68.99;102551.97;5060284;28;20088;-75
2022/07/10 08:15:27;;;;;;;5.15;1.30;;;;;;;16.71;69.07;102553.59;5057216;28;20087;-73
2022/07/10 08:17:57;;;;;;;9.05;1.42;;;;;;;16.80;68.67;102547.09;5056757;28;20041;-74
2022/07/10 08:20:27;;;;;;;5.75;1.50;;;;;;;16.92;67.76;102544.09;5063283;28;20053;-75
2022/07/10 08:22:54;;;;;;;9.75;1.42;;;;;;;16.99;67.39;102550.13;5061059;28;20037;-75
2022/07/10 08:25:27;;;;;;;8.43;1.60;;;;;;;17.07;66.72;102547.25;5059103;28;20049;-73
2022/07/10 08:28:01;;;;;;;3.97;1.10;;;;;;;17.11;67.16;102548.88;5065314;28;20047;-74
2022/07/10 08:30:28;;;;;;;15.10;1.90;;;;;;;17.26;66.99;102546.66;5065066;28;20117;-74
2022/07/10 08:32:56;;;;;;;5.88;1.42;;;;;;;17.44;66.57;102548.75;5057288;28;20049;-74
2022/07/10 08:35:23;;;;;;;5.18;1.40;;;;;;;17.72;64.44;102542.50;5062515;28;20447;-76
2022/07/10 08:37:50;;;;;;;7.22;1.58;;;;;;;17.95;64.44;102543.50;5032699;28;20547;-75
2022/07/10 08:40:23;;;;;;;5.97;1.33;;;;;;;18.15;63.35;102534.84;5044373;28;20065;-74
2022/07/10 08:42:51;;;;;;;7.25;1.38;;;;;;;18.22;62.69;102536.38;5039959;28;20041;-76
2022/07/10 08:45:18;;;;;;;5.90;1.55;;;;;;;18.14;62.66;102547.31;5043916;28;20769;-75
2022/07/10 08:47:45;;;;;;;6.97;1.42;;;;;;;18.09;63.03;102551.94;5043044;28;20126;-75
2022/07/10 08:50:23;;;;;;;8.73;1.60;;;;;;;18.08;62.98;102552.88;5038937;28;20041;-75
2022/07/10 08:53:18;;;;;;;8.75;1.65;;;;;;;18.18;62.64;102552.56;5041635;28;20045;-75
2022/07/10 08:55:45;;;;;;;8.88;1.80;;;;;;;18.31;62.41;102541.38;5040755;28;20065;-75
2022/07/10 08:58:13;;;;;;;10.05;1.50;;;;;;;18.39;62.23;102537.53;5041133;28;20126;-74
2022/07/10 09:00:44;;;;;;;6.65;1.17;;;;;;;18.56;61.55;102543.16;5044997;28;20062;-74
2022/07/10 09:03:12;;;;;;;4.97;1.15;;;;;;;18.75;60.75;102535.31;5046456;28;20045;-75
2022/07/10 09:05:39;;;;;;;4.55;1.13;;;;;;;18.87;60.52;102533.09;5040683;28;20049;-75
2022/07/10 09:08:33;;;;;;;9.75;1.40;;;;;;;18.87;60.63;102533.09;5043095;28;20745;-73
2022/07/10 09:11:15;;;;;;;5.53;1.33;;;;;;;18.84;61.06;102531.41;5038082;28;20045;-74
2022/07/10 09:13:53;;;;;;;5.45;1.20;;;;;;;18.82;61.01;102532.41;5031070;28;20041;-75
2022/07/10 09:16:29;;;;;;;4.03;1.27;;;;;;;18.74;60.33;102528.22;5037424;28;20045;-74
2022/07/10 09:19:13;;;;;;;6.75;1.23;;;;;;;18.70;60.97;102529.28;5042447;28;20050;-74
2022/07/10 09:21:40;;;;;;;3.58;1.02;;;;;;;18.90;60.92;102522.31;5039378;28;20038;-74
2022/07/10 09:24:08;;;;;;;5.45;1.10;;;;;;;19.02;60.74;102520.97;5040540;28;20511;-74
2022/07/10 09:26:37;;;;;;;9.30;1.30;;;;;;;18.99;60.91;102527.31;5036787;28;20049;-75
2022/07/10 09:29:14;;;;;;;7.28;1.10;;;;;;;19.04;59.83;102519.13;5041907;28;20128;-75
2022/07/10 09:31:54;;;;;;;3.47;0.95;;;;;;;19.11;58.91;102503.72;5041083;28;20038;-75
2022/07/10 09:34:40;;;;;;;1.67;1.13;;;;;;;19.31;58.20;102492.19;5033492;28;20048;-76
2022/07/10 09:37:28;;;;;;;5.68;1.50;;;;;;;19.43;58.30;102493.50;5044056;28;20045;-75
2022/07/10 09:39:58;;;;;;;4.90;0.85;;;;;;;19.37;58.13;102494.63;5038720;28;20047;-76
2022/07/10 09:42:36;;;;;;;5.15;0.98;;;;;;;19.31;58.16;102500.22;5039438;28;20069;-75
2022/07/10 09:45:12;;;;;;;5.32;0.95;;;;;;;19.12;58.56;102495.63;5038408;28;20061;-76
2022/07/10 09:47:44;;;;;;;6.90;1.15;;;;;;;19.01;58.83;102495.19;5041623;28;20535;-74
2022/07/10 09:50:28;;;;;;;6.55;1.27;;;;;;;19.00;59.04;102488.97;5038465;28;20042;-76
2022/07/10 09:52:59;;;;;;;5.55;1.17;;;;;;;19.01;59.54;102492.50;5038103;28;20037;-75
2022/07/10 09:55:32;;;;;;;5.88;1.50;;;;;;;19.00;59.77;102491.66;5044030;28;20129;-74
2022/07/10 09:58:07;;;;;;;7.05;1.50;;;;;;;19.16;59.56;102493.69;5040979;28;20964;-73
2022/07/10 10:00:45;;;;;;;5.32;1.40;;;;;;;19.40;58.56;102479.31;5061305;28;20042;-74
2022/07/10 10:03:16;;;;;;;5.35;1.23;;;;;;;19.86;57.49;102492.56;5059041;28;20057;-74
2022/07/10 10:05:55;;;;;;;5.47;1.33;;;;;;;20.00;57.72;102489.28;5075263;28;20103;-75
2022/07/10 10:08:29;;;;;;;6.78;1.35;;;;;;;19.89;56.96;102494.25;5064763;28;20112;-76
2022/07/10 10:10:57;;;;;;;;;;;;;;;19.62;57.89;102483.78;5066292;28;20128;-75
2022/07/10 10:13:27;;;;;;;4.20;1.30;;;;;;;19.54;58.22;102500.13;5063458;28;19982;-75
2022/07/10 10:15:55;;;;;;;6.88;1.35;;;;;;;19.46;57.99;102493.34;5067766;28;20108;-74
2022/07/10 10:18:26;;;;;;;6.05;1.40;;;;;;;19.36;58.29;102496.41;5060120;28;20037;-74
2022/07/10 10:20:55;;;;;;;6.97;1.50;;;;;;;19.28;58.64;102495.88;5065379;28;20049;-76
2022/07/10 10:23:25;;;;;;;3.83;1.20;;;;;;;19.22;59.18;102496.13;5061806;28;20052;-74
2022/07/10 10:25:57;;;;;;;6.63;1.45;;;;;;;19.22;59.12;102493.47;5068619;28;20040;-74
2022/07/10 10:28:26;;;;;;;3.83;1.48;;;;;;;19.36;59.16;102488.41;5065733;28;20943;-75
2022/07/10 10:30:58;;;;;;;4.55;1.30;;;;;;;19.53;58.20;102486.84;5067481;28;20063;-74
2022/07/10 10:33:37;;;;;;;5.07;1.27;;;;;;;19.67;58.54;102486.25;5058635;28;20079;-74
2022/07/10 10:36:13;;;;;;;4.15;1.10;;;;;;;19.75;58.66;102476.06;5067279;28;20038;-76
2022/07/10 10:38:55;;;;;;;6.78;1.30;;;;;;;19.93;57.66;102473.56;5064813;28;21766;-76
2022/07/10 10:41:28;;;;;;;4.20;1.30;;;;;;;20.05;57.65;102474.81;5064682;28;20037;-76
2022/07/10 10:44:08;;;;;;;3.97;1.20;;;;;;;20.47;56.41;102481.84;5065058;28;20045;-76
2022/07/10 10:46:53;;;;;;;2.97;0.93;;;;;;;20.71;54.71;102484.31;5064307;28;20110;-77
2022/07/10 10:49:25;;;;;;;4.90;1.10;;;;;;;20.90;53.94;102474.47;5064466;28;20056;-75
2022/07/10 10:51:58;;;;;;;2.40;1.10;;;;;;;20.78;54.49;102469.69;5065765;28;20071;-75
2022/07/10 10:54:28;;;;;;;4.30;1.30;;;;;;;20.62;54.78;102478.47;5067084;28;20046;-75
2022/07/10 10:57:16;;;;;;;6.80;1.30;;;;;;;20.68;54.46;102477.31;5066414;28;20266;-75
2022/07/10 10:59:53;;;;;;;4.80;1.30;;;;;;;20.85;54.20;102473.84;5062435;28;20055;-75
2022/07/10 11:02:42;;;;;;;4.45;1.40;;;;;;;21.05;53.73;102470.19;5066502;28;20098;-74
2022/07/10 11:05:17;;;;;;;3.28;1.20;;;;;;;21.14;53.06;102476.03;5065385;28;20043;-75
2022/07/10 11:07:58;;;;;;;3.13;1.05;;;;;;;21.34;52.77;102467.88;5066729;28;20061;-74
2022/07/10 11:10:35;;;;;;;5.10;1.40;;;;;;;21.56;52.13;102475.72;5064778;28;20057;-76
2022/07/10 11:13:09;;;;;;;4.93;1.30;;;;;;;21.98;52.08;102467.31;5064498;28;20115;-75
2022/07/10 11:15:42;;;;;;;3.38;1.20;;;;;;;22.30;51.00;102460.22;5064808;28;20051;-75
2022/07/10 11:18:16;;;;;;;5.97;1.40;;;;;;;22.53;49.93;102468.88;5067665;28;20045;-75
2022/07/10 11:20:49;;;;;;;4.15;1.27;;;;;;;22.39;49.33;102455.28;5063285;28;20072;-74
2022/07/10 11:23:53;;;;;;;4.00;0.90;;;;;;;22.23;49.27;102458.81;5066028;28;20041;-73
2022/07/10 11:26:43;;;;;;;2.95;0.90;;;;;;;21.97;49.99;102454.88;5065324;28;20134;-75
2022/07/10 11:29:37;;;;;;;1.70;0.95;;;;;;;21.69;50.00;102465.22;5062056;28;20136;-73
2022/07/10 11:32:07;;;;;;;5.32;1.05;;;;;;;21.40;50.51;102458.63;5065376;28;20049;-72
2022/07/10 11:34:36;;;;;;;1.70;0.80;;;;;;;21.19;50.96;102456.09;5066535;28;20586;-72
2022/07/10 11:37:15;;;;;;;6.43;1.00;;;;;;;21.00;51.48;102455.28;5067090;28;20041;-72
2022/07/10 11:39:43;;;;;;;2.30;1.13;;;;;;;20.85;52.50;102454.19;5063744;28;20107;-72
2022/07/10 11:42:10;;;;;;;3.08;1.00;;;;;;;20.85;52.79;102451.53;5065137;28;20041;-75
2022/07/10 11:44:37;;;;;;;3.47;1.15;;;;;;;21.07;52.32;102436.13;5064611;28;20955;-75